Nearby METAR Reports

 

K1A5 - Macon/Franklin, North Carolina, USA
Distance from station: WSW 16mi, 25km
Updated: Tue, 14-Aug-2018 5:30pm EDT
Clear
Clear
 Wind from NW
Wind: NW 5 mph , 7 km/h
Temperature: 82°F , 28°C
Heat Index: 82°F , 28°C
Dew Point: 61°F , 16°C
Humidity: 48%
Barometer: 30.06 inHg , 1017.9 hPa
Clouds: Clear
2018/08/14 21:30 K1A5 142130Z AUTO 31004KT CLR 28/16 A3006 RMK AO2 T02790164 PWINO
KAVL - Asheville, North Carolina, USA
Distance from station: ENE 36mi, 59km
Updated: Tue, 14-Aug-2018 4:54pm EDT
Mostly cloudy
Mostly cloudy
 Wind from NW
Wind: NW 7 mph , 11 km/h
Temperature: 81°F , 27°C
Heat Index: 82°F , 28°C
Dew Point: 61°F , 16°C
Humidity: 51%
Barometer: 30.07 inHg , 1018.3 hPa
Clouds: Mostly cloudy
Visibility: 10 miles , 16 km
Cloud details: Mostly cloudy 8500 ft
2018/08/14 20:54 KAVL 142054Z 32006KT 10SM BKN085 27/16 A3007 RMK AO2 SLP156 T02720161 56012
 
KRHP - Andrews, North Carolina, USA
Distance from station: WSW 40mi, 64km
Updated: Tue, 14-Aug-2018 5:30pm EDT
Partly cloudy
Partly cloudy
 Wind from WSW
Wind: WSW 6 mph , 9 km/h
Temperature: 82°F , 28°C
Heat Index: 84°F , 29°C
Dew Point: 64°F , 18°C
Humidity: 55%
Barometer: 30.06 inHg , 1017.9 hPa
Clouds: Partly cloudy
Visibility: 10 miles , 16 km
Cloud details: Partly cloudy 5500 ft
2018/08/14 21:30 KRHP 142130Z AUTO 24005KT 10SM SCT055 28/18 A3006 RMK AO2 T02800176
KLQK - Pickens, South Carolina, USA
Distance from station: SE 42mi, 68km
Updated: Tue, 14-Aug-2018 5:35pm EDT
Clear
Clear
 Wind from SW
Wind: SW 8 mph , 13 km/h
Temperature: 88°F , 31°C
Heat Index: 91°F , 33°C
Dew Point: 66°F , 19°C
Humidity: 49%
Barometer: 30.00 inHg , 1015.9 hPa
Clouds: Clear
Visibility: 10 miles , 16 km
2018/08/14 21:35 KLQK 142135Z AUTO 22007KT 10SM CLR 31/19 A3000 RMK AO2 T03050194
 
KCEU - Clemson, South Carolina, USA
Distance from station: SSE 46mi, 75km
Updated: Tue, 14-Aug-2018 4:54pm EDT
Clear
Clear
 Wind from varies
Wind: varies 6 mph , 9 km/h
Temperature: 86°F , 30°C
Heat Index: 88°F , 31°C
Dew Point: 64°F , 18°C
Humidity: 49%
Barometer: 30.01 inHg , 1016.3 hPa
Clouds: Clear
Visibility: 10 miles , 16 km
2018/08/14 20:54 KCEU 142054Z AUTO VRB05KT 10SM CLR 30/18 A3001 RMK AO2 SLP150 T03000178 56015
KTOC - Toccoa, Georgia, USA
Distance from station: S 49mi, 79km
Updated: Tue, 14-Aug-2018 5:35pm EDT
Clear
Clear
 Wind from SW
Wind: SW 6 mph , 9 km/h
Temperature: 90°F , 32°C
Heat Index: 94°F , 34°C
Dew Point: 68°F , 20°C
Humidity: 49%
Barometer: 30.01 inHg , 1016.3 hPa
Clouds: Clear
Visibility: 10 miles , 16 km
2018/08/14 21:35 KTOC 142135Z AUTO 23005KT 10SM CLR 32/20 A3001 RMK AO2 T03160196